New Century — V7GF8 — position and weather

sailwx.info

Track history (hours):
 
Tides and Currents Weather Stations Pressure Air Temp Water Temp Dewpoint Dewpoint Depression Visibility Wind Speed Wind Dir Waves Ship Positions

New Century

Last reported at 2018-Feb-17 18:58 UTC. Time now 2018-Feb-20 07:54 UTC.
Position N 20°41' E 069°28'.

Length 228 m; draft 8.2 m.

Type: Tanker. MMSI: 538002085.

Date/timePositionNaut miles runAvg speedWind from/ knotsBaromVisibWave heightAir tempDewpointWater temp
2018-Feb-17 18:58N 20°41' E 069°28'612.2
2018-Feb-17 18:30N 20°36' E 069°31'11712.4
2018-Feb-17 09:03N 18°51' E 070°25'112.2
2018-Feb-17 09:00N 18°50' E 070°25'612.2
2018-Feb-17 08:30N 18°44' E 070°28'1912.4
2018-Feb-17 07:00N 18°28' E 070°37'612.5
2018-Feb-17 06:30N 18°22' E 070°40'712.4
2018-Feb-17 05:57N 18°17' E 070°44'612.3
2018-Feb-17 05:28N 18°12' E 070°48'612.3
2018-Feb-17 05:00N 18°07' E 070°51'612.4
2018-Feb-17 04:28N 18°01' E 070°55'612.2
2018-Feb-17 04:00N 17°57' E 070°58'712.4
2018-Feb-17 03:27N 17°52' E 071°03'612.5
2018-Feb-17 02:59N 17°48' E 071°07'612.5
2018-Feb-17 02:30N 17°44' E 071°12'812.5
2018-Feb-17 01:54N 17°38' E 071°18'512.6
2018-Feb-17 01:30N 17°35' E 071°21'712.8
2018-Feb-17 01:00N 17°30' E 071°26'713.0
2018-Feb-17 00:28N 17°26' E 071°32'612.9
2018-Feb-17 00:00N 17°22' E 071°36'713.0
2018-Feb-16 23:30N 17°17' E 071°41'1113.0
2018-Feb-16 22:39N 17°09' E 071°49'613.0
2018-Feb-16 22:11N 17°05' E 071°54'212.9
2018-Feb-16 22:00N 17°03' E 071°56'813.0
2018-Feb-16 21:22N 16°58' E 072°02'513.0
2018-Feb-16 20:57N 16°54' E 072°06'813.0
2018-Feb-16 20:20N 16°48' E 072°12'  
2018-Feb-08 21:30N 01°10' E 103°41'7 0.4
2018-Feb-08 05:00N 01°16' E 103°45'2 0.4
2018-Feb-08 01:25N 01°17' E 103°44'0 0.0
2018-Feb-08 00:58N 01°17' E 103°44'0 0.0
2018-Feb-08 00:28N 01°17' E 103°44'0 0.0
2018-Feb-07 23:55N 01°17' E 103°44'0 0.0
2018-Feb-07 23:28N 01°17' E 103°44'0 0.0
2018-Feb-07 22:58N 01°17' E 103°44'0 0.0
2018-Feb-07 22:28N 01°17' E 103°44'0 0.0
2018-Feb-07 21:58N 01°17' E 103°44'0 0.0
2018-Feb-07 21:31N 01°17' E 103°44'  
Track history (hours):
 
Tides and Currents Weather Stations Pressure Air Temp Water Temp Dewpoint Dewpoint Depression Visibility Wind Speed Wind Dir Waves Ship Positions

New Century

Last reported at 2018-Feb-17 18:58 UTC. Time now 2018-Feb-20 07:54 UTC.
Position N 20°41' E 069°28'.

Length 228 m; draft 8.2 m.

Type: Tanker. MMSI: 538002085.

Date/timePositionNaut miles runAvg speedWind from/ knotsBaromVisibWave heightAir tempDewpointWater temp
2018-Feb-17 18:58N 20°41' E 069°28'612.2
2018-Feb-17 18:30N 20°36' E 069°31'11712.4
2018-Feb-17 09:03N 18°51' E 070°25'112.2
2018-Feb-17 09:00N 18°50' E 070°25'612.2
2018-Feb-17 08:30N 18°44' E 070°28'1912.4
2018-Feb-17 07:00N 18°28' E 070°37'612.5
2018-Feb-17 06:30N 18°22' E 070°40'712.4
2018-Feb-17 05:57N 18°17' E 070°44'612.3
2018-Feb-17 05:28N 18°12' E 070°48'612.3
2018-Feb-17 05:00N 18°07' E 070°51'612.4
2018-Feb-17 04:28N 18°01' E 070°55'612.2
2018-Feb-17 04:00N 17°57' E 070°58'712.4
2018-Feb-17 03:27N 17°52' E 071°03'612.5
2018-Feb-17 02:59N 17°48' E 071°07'612.5
2018-Feb-17 02:30N 17°44' E 071°12'812.5
2018-Feb-17 01:54N 17°38' E 071°18'512.6
2018-Feb-17 01:30N 17°35' E 071°21'712.8
2018-Feb-17 01:00N 17°30' E 071°26'713.0
2018-Feb-17 00:28N 17°26' E 071°32'612.9
2018-Feb-17 00:00N 17°22' E 071°36'713.0
2018-Feb-16 23:30N 17°17' E 071°41'1113.0
2018-Feb-16 22:39N 17°09' E 071°49'613.0
2018-Feb-16 22:11N 17°05' E 071°54'212.9
2018-Feb-16 22:00N 17°03' E 071°56'813.0
2018-Feb-16 21:22N 16°58' E 072°02'513.0
2018-Feb-16 20:57N 16°54' E 072°06'813.0
2018-Feb-16 20:20N 16°48' E 072°12'  
2018-Feb-08 21:30N 01°10' E 103°41'7 0.4
2018-Feb-08 05:00N 01°16' E 103°45'2 0.4
2018-Feb-08 01:25N 01°17' E 103°44'0 0.0
2018-Feb-08 00:58N 01°17' E 103°44'0 0.0
2018-Feb-08 00:28N 01°17' E 103°44'0 0.0
2018-Feb-07 23:55N 01°17' E 103°44'0 0.0
2018-Feb-07 23:28N 01°17' E 103°44'0 0.0
2018-Feb-07 22:58N 01°17' E 103°44'0 0.0
2018-Feb-07 22:28N 01°17' E 103°44'0 0.0
2018-Feb-07 21:58N 01°17' E 103°44'0 0.0
2018-Feb-07 21:31N 01°17' E 103°44'  

Dump ship's entire track history